sensor_id;sensor_type;location;lat;lon;timestamp;temperature;humidity
48998;DHT22;34807;51.456;7.244;2022-08-02T00:01:33;20.10;82.30
48998;DHT22;34807;51.456;7.244;2022-08-02T00:03:58;20.10;82.30
48998;DHT22;34807;51.456;7.244;2022-08-02T00:06:24;20.10;82.30
48998;DHT22;34807;51.456;7.244;2022-08-02T00:08:49;20.00;82.40
48998;DHT22;34807;51.456;7.244;2022-08-02T00:11:15;20.00;82.40
48998;DHT22;34807;51.456;7.244;2022-08-02T00:13:40;20.00;82.50
48998;DHT22;34807;51.456;7.244;2022-08-02T00:16:06;20.00;82.70
48998;DHT22;34807;51.456;7.244;2022-08-02T00:18:31;20.00;82.70
48998;DHT22;34807;51.456;7.244;2022-08-02T00:20:57;19.90;82.70
48998;DHT22;34807;51.456;7.244;2022-08-02T00:23:22;19.90;82.60
48998;DHT22;34807;51.456;7.244;2022-08-02T00:25:48;19.90;82.80
48998;DHT22;34807;51.456;7.244;2022-08-02T00:28:13;19.90;82.80
48998;DHT22;34807;51.456;7.244;2022-08-02T00:30:39;19.80;82.80
48998;DHT22;34807;51.456;7.244;2022-08-02T00:33:04;19.80;82.80
48998;DHT22;34807;51.456;7.244;2022-08-02T00:35:30;19.80;83.00
48998;DHT22;34807;51.456;7.244;2022-08-02T00:37:56;19.80;82.80
48998;DHT22;34807;51.456;7.244;2022-08-02T00:40:22;19.80;82.90
48998;DHT22;34807;51.456;7.244;2022-08-02T00:42:59;19.80;82.80
48998;DHT22;34807;51.456;7.244;2022-08-02T00:45:24;19.80;82.80
48998;DHT22;34807;51.456;7.244;2022-08-02T00:47:50;19.70;82.80
48998;DHT22;34807;51.456;7.244;2022-08-02T00:50:18;19.70;82.80
48998;DHT22;34807;51.456;7.244;2022-08-02T00:52:43;19.70;82.80
48998;DHT22;34807;51.456;7.244;2022-08-02T00:55:09;19.70;82.80
48998;DHT22;34807;51.456;7.244;2022-08-02T00:57:34;19.70;83.00
48998;DHT22;34807;51.456;7.244;2022-08-02T01:00:00;19.70;82.80
48998;DHT22;34807;51.456;7.244;2022-08-02T01:02:25;19.60;82.90
48998;DHT22;34807;51.456;7.244;2022-08-02T01:04:51;19.60;83.50
48998;DHT22;34807;51.456;7.244;2022-08-02T01:07:16;19.60;83.00
48998;DHT22;34807;51.456;7.244;2022-08-02T01:09:43;19.60;83.00
48998;DHT22;34807;51.456;7.244;2022-08-02T01:12:08;19.60;83.00
48998;DHT22;34807;51.456;7.244;2022-08-02T01:14:34;19.60;83.00
48998;DHT22;34807;51.456;7.244;2022-08-02T01:17:07;19.50;83.00
48998;DHT22;34807;51.456;7.244;2022-08-02T01:19:50;19.50;83.00
48998;DHT22;34807;51.456;7.244;2022-08-02T01:29:44;19.50;83.10
48998;DHT22;34807;51.456;7.244;2022-08-02T01:32:16;19.50;83.20
48998;DHT22;34807;51.456;7.244;2022-08-02T01:34:48;19.40;83.10
48998;DHT22;34807;51.456;7.244;2022-08-02T01:39:41;19.40;83.00
48998;DHT22;34807;51.456;7.244;2022-08-02T01:42:07;19.40;83.10
48998;DHT22;34807;51.456;7.244;2022-08-02T01:44:34;19.40;83.10
48998;DHT22;34807;51.456;7.244;2022-08-02T01:47:01;19.30;83.10
48998;DHT22;34807;51.456;7.244;2022-08-02T01:49:28;19.30;83.20
48998;DHT22;34807;51.456;7.244;2022-08-02T01:51:54;19.30;83.20
48998;DHT22;34807;51.456;7.244;2022-08-02T01:54:40;19.30;83.10
48998;DHT22;34807;51.456;7.244;2022-08-02T01:57:08;19.30;83.20
48998;DHT22;34807;51.456;7.244;2022-08-02T01:59:34;19.30;83.10
48998;DHT22;34807;51.456;7.244;2022-08-02T02:02:00;19.30;83.20
48998;DHT22;34807;51.456;7.244;2022-08-02T02:04:27;19.30;83.20
48998;DHT22;34807;51.456;7.244;2022-08-02T02:06:53;19.20;83.20
48998;DHT22;34807;51.456;7.244;2022-08-02T02:09:19;19.20;83.30
48998;DHT22;34807;51.456;7.244;2022-08-02T02:11:46;19.20;83.20
48998;DHT22;34807;51.456;7.244;2022-08-02T02:14:12;19.20;83.30
48998;DHT22;34807;51.456;7.244;2022-08-02T02:16:39;19.20;83.30
48998;DHT22;34807;51.456;7.244;2022-08-02T02:19:06;19.20;83.30
48998;DHT22;34807;51.456;7.244;2022-08-02T02:21:33;19.10;83.40
48998;DHT22;34807;51.456;7.244;2022-08-02T02:23:59;19.10;83.30
48998;DHT22;34807;51.456;7.244;2022-08-02T02:26:24;19.10;83.40
48998;DHT22;34807;51.456;7.244;2022-08-02T02:28:51;19.10;83.40
48998;DHT22;34807;51.456;7.244;2022-08-02T02:31:18;19.10;83.50
48998;DHT22;34807;51.456;7.244;2022-08-02T02:33:49;19.00;83.40
48998;DHT22;34807;51.456;7.244;2022-08-02T02:36:15;19.10;83.50
48998;DHT22;34807;51.456;7.244;2022-08-02T02:38:42;19.00;83.50
48998;DHT22;34807;51.456;7.244;2022-08-02T02:41:08;19.00;83.40
48998;DHT22;34807;51.456;7.244;2022-08-02T02:43:34;19.00;83.50
48998;DHT22;34807;51.456;7.244;2022-08-02T02:46:03;19.00;83.50
48998;DHT22;34807;51.456;7.244;2022-08-02T02:48:29;19.00;83.50
48998;DHT22;34807;51.456;7.244;2022-08-02T02:50:55;18.90;83.50
48998;DHT22;34807;51.456;7.244;2022-08-02T02:53:21;18.90;83.50
48998;DHT22;34807;51.456;7.244;2022-08-02T02:55:47;18.90;83.50
48998;DHT22;34807;51.456;7.244;2022-08-02T02:58:13;18.90;83.50
48998;DHT22;34807;51.456;7.244;2022-08-02T03:00:39;18.90;83.60
48998;DHT22;34807;51.456;7.244;2022-08-02T03:03:23;18.90;83.40
48998;DHT22;34807;51.456;7.244;2022-08-02T03:05:49;18.90;83.50
48998;DHT22;34807;51.456;7.244;2022-08-02T03:08:14;18.90;83.50
48998;DHT22;34807;51.456;7.244;2022-08-02T03:10:41;18.80;83.50
48998;DHT22;34807;51.456;7.244;2022-08-02T03:13:07;18.80;83.50
48998;DHT22;34807;51.456;7.244;2022-08-02T03:15:32;18.80;83.70
48998;DHT22;34807;51.456;7.244;2022-08-02T03:17:58;18.80;83.60
48998;DHT22;34807;51.456;7.244;2022-08-02T03:20:24;18.80;83.50
48998;DHT22;34807;51.456;7.244;2022-08-02T03:22:49;18.80;83.60
48998;DHT22;34807;51.456;7.244;2022-08-02T03:25:16;18.70;83.60
48998;DHT22;34807;51.456;7.244;2022-08-02T03:27:43;18.70;83.60
48998;DHT22;34807;51.456;7.244;2022-08-02T03:30:09;18.70;83.60
48998;DHT22;34807;51.456;7.244;2022-08-02T03:32:36;18.70;83.60
48998;DHT22;34807;51.456;7.244;2022-08-02T03:35:03;18.70;83.70
48998;DHT22;34807;51.456;7.244;2022-08-02T03:37:29;18.70;83.70
48998;DHT22;34807;51.456;7.244;2022-08-02T03:39:56;18.60;83.60
48998;DHT22;34807;51.456;7.244;2022-08-02T03:42:22;18.70;83.70
48998;DHT22;34807;51.456;7.244;2022-08-02T03:44:48;18.60;83.60
48998;DHT22;34807;51.456;7.244;2022-08-02T03:47:14;18.60;83.60
48998;DHT22;34807;51.456;7.244;2022-08-02T03:49:41;18.60;83.60
48998;DHT22;34807;51.456;7.244;2022-08-02T03:52:06;18.60;83.60
48998;DHT22;34807;51.456;7.244;2022-08-02T03:54:32;18.60;83.60
48998;DHT22;34807;51.456;7.244;2022-08-02T03:56:57;18.60;83.70
48998;DHT22;34807;51.456;7.244;2022-08-02T03:59:23;18.50;83.60
48998;DHT22;34807;51.456;7.244;2022-08-02T04:01:48;18.50;83.60
48998;DHT22;34807;51.456;7.244;2022-08-02T04:04:14;18.50;83.60
48998;DHT22;34807;51.456;7.244;2022-08-02T04:06:39;18.50;83.70
48998;DHT22;34807;51.456;7.244;2022-08-02T04:09:05;18.50;83.60
48998;DHT22;34807;51.456;7.244;2022-08-02T04:11:30;18.50;83.70
48998;DHT22;34807;51.456;7.244;2022-08-02T04:13:57;18.50;83.60
48998;DHT22;34807;51.456;7.244;2022-08-02T04:16:27;18.50;83.70
48998;DHT22;34807;51.456;7.244;2022-08-02T04:18:57;18.50;83.60
48998;DHT22;34807;51.456;7.244;2022-08-02T04:21:26;18.40;83.60
48998;DHT22;34807;51.456;7.244;2022-08-02T04:23:52;18.50;83.70
48998;DHT22;34807;51.456;7.244;2022-08-02T04:26:18;18.40;83.60
48998;DHT22;34807;51.456;7.244;2022-08-02T04:28:44;18.40;83.70
48998;DHT22;34807;51.456;7.244;2022-08-02T04:31:10;18.40;83.60
48998;DHT22;34807;51.456;7.244;2022-08-02T04:33:36;18.40;83.70
48998;DHT22;34807;51.456;7.244;2022-08-02T04:36:02;18.40;83.60
48998;DHT22;34807;51.456;7.244;2022-08-02T04:38:29;18.40;83.70
48998;DHT22;34807;51.456;7.244;2022-08-02T04:40:54;18.40;83.60
48998;DHT22;34807;51.456;7.244;2022-08-02T04:43:20;18.40;83.80
48998;DHT22;34807;51.456;7.244;2022-08-02T04:45:53;18.40;83.60
48998;DHT22;34807;51.456;7.244;2022-08-02T04:48:19;18.40;83.70
48998;DHT22;34807;51.456;7.244;2022-08-02T04:50:45;18.40;83.80
48998;DHT22;34807;51.456;7.244;2022-08-02T04:53:10;18.40;83.70
48998;DHT22;34807;51.456;7.244;2022-08-02T04:55:36;18.40;83.70
48998;DHT22;34807;51.456;7.244;2022-08-02T04:58:02;18.40;83.70
48998;DHT22;34807;51.456;7.244;2022-08-02T05:00:27;18.40;83.80
48998;DHT22;34807;51.456;7.244;2022-08-02T05:02:56;18.40;83.80
48998;DHT22;34807;51.456;7.244;2022-08-02T05:05:21;18.30;83.70
48998;DHT22;34807;51.456;7.244;2022-08-02T05:07:47;18.40;83.90
48998;DHT22;34807;51.456;7.244;2022-08-02T05:10:12;18.40;83.80
48998;DHT22;34807;51.456;7.244;2022-08-02T05:12:38;18.40;83.80
48998;DHT22;34807;51.456;7.244;2022-08-02T05:15:04;18.30;83.80
48998;DHT22;34807;51.456;7.244;2022-08-02T05:17:30;18.40;83.80
48998;DHT22;34807;51.456;7.244;2022-08-02T05:19:55;18.30;83.80
48998;DHT22;34807;51.456;7.244;2022-08-02T05:22:22;18.30;83.60
48998;DHT22;34807;51.456;7.244;2022-08-02T05:24:47;18.30;83.80
48998;DHT22;34807;51.456;7.244;2022-08-02T05:27:13;18.30;83.70
48998;DHT22;34807;51.456;7.244;2022-08-02T05:29:38;18.40;83.80
48998;DHT22;34807;51.456;7.244;2022-08-02T05:32:04;18.30;83.80
48998;DHT22;34807;51.456;7.244;2022-08-02T05:34:29;18.30;83.80
48998;DHT22;34807;51.456;7.244;2022-08-02T05:36:55;18.30;83.70
48998;DHT22;34807;51.456;7.244;2022-08-02T05:39:20;18.40;83.80
48998;DHT22;34807;51.456;7.244;2022-08-02T05:41:46;18.30;83.80
48998;DHT22;34807;51.456;7.244;2022-08-02T05:44:11;18.30;83.80
48998;DHT22;34807;51.456;7.244;2022-08-02T05:46:37;18.30;83.60
48998;DHT22;34807;51.456;7.244;2022-08-02T05:49:02;18.30;83.80
48998;DHT22;34807;51.456;7.244;2022-08-02T05:51:33;18.30;83.80
48998;DHT22;34807;51.456;7.244;2022-08-02T05:56:32;18.30;83.80
48998;DHT22;34807;51.456;7.244;2022-08-02T06:01:34;18.30;83.70
48998;DHT22;34807;51.456;7.244;2022-08-02T06:04:02;18.30;83.80
48998;DHT22;34807;51.456;7.244;2022-08-02T06:06:29;18.40;83.70
48998;DHT22;34807;51.456;7.244;2022-08-02T06:09:29;18.40;83.80
48998;DHT22;34807;51.456;7.244;2022-08-02T06:11:48;18.40;83.80
48998;DHT22;34807;51.456;7.244;2022-08-02T06:14:16;18.40;83.80
48998;DHT22;34807;51.456;7.244;2022-08-02T06:16:42;18.40;83.70
48998;DHT22;34807;51.456;7.244;2022-08-02T06:19:10;18.40;83.60
48998;DHT22;34807;51.456;7.244;2022-08-02T06:21:35;18.40;83.60
48998;DHT22;34807;51.456;7.244;2022-08-02T06:24:03;18.50;83.60
48998;DHT22;34807;51.456;7.244;2022-08-02T06:26:29;18.50;83.60
48998;DHT22;34807;51.456;7.244;2022-08-02T06:28:56;18.50;83.50
48998;DHT22;34807;51.456;7.244;2022-08-02T06:31:22;18.50;83.40
48998;DHT22;34807;51.456;7.244;2022-08-02T06:33:47;18.50;83.40
48998;DHT22;34807;51.456;7.244;2022-08-02T06:39:37;18.60;83.30
48998;DHT22;34807;51.456;7.244;2022-08-02T06:41:42;18.60;83.30
48998;DHT22;34807;51.456;7.244;2022-08-02T06:44:08;18.60;83.20
48998;DHT22;34807;51.456;7.244;2022-08-02T06:46:34;18.70;83.20
48998;DHT22;34807;51.456;7.244;2022-08-02T06:49:00;18.70;83.10
48998;DHT22;34807;51.456;7.244;2022-08-02T06:51:25;18.70;83.00
48998;DHT22;34807;51.456;7.244;2022-08-02T06:53:51;18.70;82.90
48998;DHT22;34807;51.456;7.244;2022-08-02T06:56:16;18.80;82.80
48998;DHT22;34807;51.456;7.244;2022-08-02T06:58:43;18.80;82.80
48998;DHT22;34807;51.456;7.244;2022-08-02T07:01:09;18.80;82.70
48998;DHT22;34807;51.456;7.244;2022-08-02T07:03:35;18.80;82.60
48998;DHT22;34807;51.456;7.244;2022-08-02T07:06:01;18.80;82.60
48998;DHT22;34807;51.456;7.244;2022-08-02T07:08:27;18.90;82.60
48998;DHT22;34807;51.456;7.244;2022-08-02T07:10:59;18.90;82.40
48998;DHT22;34807;51.456;7.244;2022-08-02T07:13:28;19.00;82.30
48998;DHT22;34807;51.456;7.244;2022-08-02T07:15:54;19.00;82.30
48998;DHT22;34807;51.456;7.244;2022-08-02T07:18:19;19.00;82.20
48998;DHT22;34807;51.456;7.244;2022-08-02T07:20:45;19.00;82.10
48998;DHT22;34807;51.456;7.244;2022-08-02T07:23:11;19.10;82.00
48998;DHT22;34807;51.456;7.244;2022-08-02T07:25:36;19.00;82.00
48998;DHT22;34807;51.456;7.244;2022-08-02T07:28:02;19.00;81.80
48998;DHT22;34807;51.456;7.244;2022-08-02T07:30:28;19.10;81.80
48998;DHT22;34807;51.456;7.244;2022-08-02T07:32:54;19.10;81.70
48998;DHT22;34807;51.456;7.244;2022-08-02T07:35:20;19.10;81.60
48998;DHT22;34807;51.456;7.244;2022-08-02T07:37:46;19.20;81.60
48998;DHT22;34807;51.456;7.244;2022-08-02T07:40:13;19.20;81.50
48998;DHT22;34807;51.456;7.244;2022-08-02T07:42:39;19.20;81.30
48998;DHT22;34807;51.456;7.244;2022-08-02T07:45:05;19.30;81.30
48998;DHT22;34807;51.456;7.244;2022-08-02T07:47:30;19.30;81.40
48998;DHT22;34807;51.456;7.244;2022-08-02T07:49:56;19.30;81.30
48998;DHT22;34807;51.456;7.244;2022-08-02T07:52:21;19.30;81.50
48998;DHT22;34807;51.456;7.244;2022-08-02T07:54:46;19.40;81.20
48998;DHT22;34807;51.456;7.244;2022-08-02T07:57:12;19.40;81.10
48998;DHT22;34807;51.456;7.244;2022-08-02T07:59:38;19.40;81.10
48998;DHT22;34807;51.456;7.244;2022-08-02T08:02:03;19.50;81.00
48998;DHT22;34807;51.456;7.244;2022-08-02T08:04:29;19.50;81.20
48998;DHT22;34807;51.456;7.244;2022-08-02T08:06:55;19.50;81.20
48998;DHT22;34807;51.456;7.244;2022-08-02T08:09:20;19.50;80.90
48998;DHT22;34807;51.456;7.244;2022-08-02T08:11:46;19.60;81.00
48998;DHT22;34807;51.456;7.244;2022-08-02T08:14:12;19.60;80.80
48998;DHT22;34807;51.456;7.244;2022-08-02T08:16:37;19.60;81.00
48998;DHT22;34807;51.456;7.244;2022-08-02T08:19:03;19.70;80.70
48998;DHT22;34807;51.456;7.244;2022-08-02T08:21:28;19.70;80.40
48998;DHT22;34807;51.456;7.244;2022-08-02T08:23:54;19.70;80.20
48998;DHT22;34807;51.456;7.244;2022-08-02T08:26:20;19.80;80.10
48998;DHT22;34807;51.456;7.244;2022-08-02T08:28:45;19.80;80.00
48998;DHT22;34807;51.456;7.244;2022-08-02T08:31:11;19.80;80.30
48998;DHT22;34807;51.456;7.244;2022-08-02T08:33:36;19.90;79.80
48998;DHT22;34807;51.456;7.244;2022-08-02T08:36:02;19.90;79.80
48998;DHT22;34807;51.456;7.244;2022-08-02T08:38:28;20.00;79.70
48998;DHT22;34807;51.456;7.244;2022-08-02T08:40:54;20.00;80.10
48998;DHT22;34807;51.456;7.244;2022-08-02T08:43:19;20.10;79.40
48998;DHT22;34807;51.456;7.244;2022-08-02T08:45:46;20.10;79.60
48998;DHT22;34807;51.456;7.244;2022-08-02T08:48:12;20.20;79.60
48998;DHT22;34807;51.456;7.244;2022-08-02T08:51:22;20.20;79.20
48998;DHT22;34807;51.456;7.244;2022-08-02T08:53:28;20.20;79.00
48998;DHT22;34807;51.456;7.244;2022-08-02T08:55:56;20.30;78.90
48998;DHT22;34807;51.456;7.244;2022-08-02T08:58:22;20.30;78.60
48998;DHT22;34807;51.456;7.244;2022-08-02T09:00:47;20.40;78.50
48998;DHT22;34807;51.456;7.244;2022-08-02T09:03:13;20.40;78.40
48998;DHT22;34807;51.456;7.244;2022-08-02T09:05:39;20.50;78.30
48998;DHT22;34807;51.456;7.244;2022-08-02T09:08:06;20.50;78.20
48998;DHT22;34807;51.456;7.244;2022-08-02T09:15:38;20.60;78.10
48998;DHT22;34807;51.456;7.244;2022-08-02T09:18:04;20.70;78.00
48998;DHT22;34807;51.456;7.244;2022-08-02T09:20:50;20.70;77.90
48998;DHT22;34807;51.456;7.244;2022-08-02T09:23:16;20.80;77.90
48998;DHT22;34807;51.456;7.244;2022-08-02T09:25:45;20.80;77.80
48998;DHT22;34807;51.456;7.244;2022-08-02T09:28:19;20.80;77.90
48998;DHT22;34807;51.456;7.244;2022-08-02T09:30:44;20.90;77.80
48998;DHT22;34807;51.456;7.244;2022-08-02T09:33:10;20.90;77.80
48998;DHT22;34807;51.456;7.244;2022-08-02T09:35:37;21.00;77.70
48998;DHT22;34807;51.456;7.244;2022-08-02T09:38:13;21.00;77.60
48998;DHT22;34807;51.456;7.244;2022-08-02T09:40:39;21.10;77.40
48998;DHT22;34807;51.456;7.244;2022-08-02T09:43:05;21.10;78.00
48998;DHT22;34807;51.456;7.244;2022-08-02T09:45:32;21.20;77.20
48998;DHT22;34807;51.456;7.244;2022-08-02T09:48:00;21.30;77.10
48998;DHT22;34807;51.456;7.244;2022-08-02T09:50:25;21.40;77.50
48998;DHT22;34807;51.456;7.244;2022-08-02T09:52:53;21.40;76.80
48998;DHT22;34807;51.456;7.244;2022-08-02T09:55:19;21.50;76.60
48998;DHT22;34807;51.456;7.244;2022-08-02T09:57:44;21.60;76.40
48998;DHT22;34807;51.456;7.244;2022-08-02T10:00:10;21.70;76.40
48998;DHT22;34807;51.456;7.244;2022-08-02T10:02:35;21.80;76.10
48998;DHT22;34807;51.456;7.244;2022-08-02T10:05:01;21.90;75.90
48998;DHT22;34807;51.456;7.244;2022-08-02T10:07:27;22.00;75.60
48998;DHT22;34807;51.456;7.244;2022-08-02T10:09:52;21.90;75.60
48998;DHT22;34807;51.456;7.244;2022-08-02T10:12:19;22.00;75.80
48998;DHT22;34807;51.456;7.244;2022-08-02T10:14:46;22.00;75.90
48998;DHT22;34807;51.456;7.244;2022-08-02T10:17:14;22.10;76.00
48998;DHT22;34807;51.456;7.244;2022-08-02T10:19:39;22.20;76.00
48998;DHT22;34807;51.456;7.244;2022-08-02T10:22:08;22.30;75.80
48998;DHT22;34807;51.456;7.244;2022-08-02T10:24:35;22.30;75.80
48998;DHT22;34807;51.456;7.244;2022-08-02T10:27:01;22.40;75.50
48998;DHT22;34807;51.456;7.244;2022-08-02T10:29:34;22.50;75.40
48998;DHT22;34807;51.456;7.244;2022-08-02T10:34:28;22.50;75.70
48998;DHT22;34807;51.456;7.244;2022-08-02T10:36:55;22.60;75.70
48998;DHT22;34807;51.456;7.244;2022-08-02T10:39:21;22.60;75.90
48998;DHT22;34807;51.456;7.244;2022-08-02T10:41:48;22.70;75.70
48998;DHT22;34807;51.456;7.244;2022-08-02T10:44:21;22.70;75.70
48998;DHT22;34807;51.456;7.244;2022-08-02T10:46:46;22.80;75.80
48998;DHT22;34807;51.456;7.244;2022-08-02T10:56:54;23.00;75.90
48998;DHT22;34807;51.456;7.244;2022-08-02T11:01:49;23.10;76.00
48998;DHT22;34807;51.456;7.244;2022-08-02T11:04:15;23.20;76.00
48998;DHT22;34807;51.456;7.244;2022-08-02T11:09:25;23.40;76.00
48998;DHT22;34807;51.456;7.244;2022-08-02T11:12:04;23.40;76.00
48998;DHT22;34807;51.456;7.244;2022-08-02T11:14:31;23.50;76.20
48998;DHT22;34807;51.456;7.244;2022-08-02T11:19:25;23.60;75.90
48998;DHT22;34807;51.456;7.244;2022-08-02T11:22:04;23.70;76.10
48998;DHT22;34807;51.456;7.244;2022-08-02T11:24:31;23.80;75.30
48998;DHT22;34807;51.456;7.244;2022-08-02T11:27:00;24.00;74.90
48998;DHT22;34807;51.456;7.244;2022-08-02T11:29:33;24.00;75.20
48998;DHT22;34807;51.456;7.244;2022-08-02T11:31:59;24.20;74.50
48998;DHT22;34807;51.456;7.244;2022-08-02T11:34:25;24.30;74.00
48998;DHT22;34807;51.456;7.244;2022-08-02T11:36:51;24.30;74.00
48998;DHT22;34807;51.456;7.244;2022-08-02T11:39:17;24.40;74.60
48998;DHT22;34807;51.456;7.244;2022-08-02T11:41:56;24.50;73.70
48998;DHT22;34807;51.456;7.244;2022-08-02T11:44:22;24.60;73.80
48998;DHT22;34807;51.456;7.244;2022-08-02T11:46:57;24.60;73.40
48998;DHT22;34807;51.456;7.244;2022-08-02T11:49:23;24.60;73.40
48998;DHT22;34807;51.456;7.244;2022-08-02T11:52:07;24.70;73.20
48998;DHT22;34807;51.456;7.244;2022-08-02T11:54:38;24.70;73.40
48998;DHT22;34807;51.456;7.244;2022-08-02T11:57:08;24.70;73.30
48998;DHT22;34807;51.456;7.244;2022-08-02T11:59:37;24.80;73.30
48998;DHT22;34807;51.456;7.244;2022-08-02T12:02:04;24.80;73.40
48998;DHT22;34807;51.456;7.244;2022-08-02T12:04:29;24.80;73.30
48998;DHT22;34807;51.456;7.244;2022-08-02T12:06:56;24.80;73.10
48998;DHT22;34807;51.456;7.244;2022-08-02T12:09:22;24.90;73.30
48998;DHT22;34807;51.456;7.244;2022-08-02T12:11:48;24.90;73.20
48998;DHT22;34807;51.456;7.244;2022-08-02T12:14:15;24.90;73.10
48998;DHT22;34807;51.456;7.244;2022-08-02T12:16:40;25.00;73.20
48998;DHT22;34807;51.456;7.244;2022-08-02T12:19:25;25.00;73.00
48998;DHT22;34807;51.456;7.244;2022-08-02T12:24:33;25.10;72.80
48998;DHT22;34807;51.456;7.244;2022-08-02T12:26:58;25.20;72.70
48998;DHT22;34807;51.456;7.244;2022-08-02T12:29:34;25.20;72.70
48998;DHT22;34807;51.456;7.244;2022-08-02T12:32:00;25.20;72.60
48998;DHT22;34807;51.456;7.244;2022-08-02T12:34:26;25.30;72.50
48998;DHT22;34807;51.456;7.244;2022-08-02T12:37:05;25.40;72.20
48998;DHT22;34807;51.456;7.244;2022-08-02T12:39:32;25.50;72.30
48998;DHT22;34807;51.456;7.244;2022-08-02T12:41:58;25.50;72.50
48998;DHT22;34807;51.456;7.244;2022-08-02T12:44:24;25.60;72.30
48998;DHT22;34807;51.456;7.244;2022-08-02T12:46:59;25.60;72.20
48998;DHT22;34807;51.456;7.244;2022-08-02T12:49:25;25.70;72.10
48998;DHT22;34807;51.456;7.244;2022-08-02T12:51:51;25.70;72.00
48998;DHT22;34807;51.456;7.244;2022-08-02T12:54:17;25.80;71.80
48998;DHT22;34807;51.456;7.244;2022-08-02T12:56:44;25.80;72.10
48998;DHT22;34807;51.456;7.244;2022-08-02T12:59:10;25.90;72.10
48998;DHT22;34807;51.456;7.244;2022-08-02T13:01:35;25.90;71.60
48998;DHT22;34807;51.456;7.244;2022-08-02T13:04:01;26.00;71.70
48998;DHT22;34807;51.456;7.244;2022-08-02T13:06:27;26.10;71.60
48998;DHT22;34807;51.456;7.244;2022-08-02T13:08:53;26.20;71.50
48998;DHT22;34807;51.456;7.244;2022-08-02T13:11:22;26.20;71.90
48998;DHT22;34807;51.456;7.244;2022-08-02T13:13:49;26.30;71.40
48998;DHT22;34807;51.456;7.244;2022-08-02T13:16:14;26.30;71.10
48998;DHT22;34807;51.456;7.244;2022-08-02T13:18:40;26.40;71.00
48998;DHT22;34807;51.456;7.244;2022-08-02T13:21:06;26.50;71.20
48998;DHT22;34807;51.456;7.244;2022-08-02T13:23:32;26.50;70.40
48998;DHT22;34807;51.456;7.244;2022-08-02T13:25:59;26.60;70.60
48998;DHT22;34807;51.456;7.244;2022-08-02T13:28:24;26.70;70.90
48998;DHT22;34807;51.456;7.244;2022-08-02T13:30:50;26.70;70.40
48998;DHT22;34807;51.456;7.244;2022-08-02T13:33:15;26.80;70.20
48998;DHT22;34807;51.456;7.244;2022-08-02T13:35:41;26.90;70.90
48998;DHT22;34807;51.456;7.244;2022-08-02T13:38:07;26.90;70.50
48998;DHT22;34807;51.456;7.244;2022-08-02T13:40:33;27.00;70.40
48998;DHT22;34807;51.456;7.244;2022-08-02T13:42:58;27.00;70.40
48998;DHT22;34807;51.456;7.244;2022-08-02T13:45:24;27.00;70.20
48998;DHT22;34807;51.456;7.244;2022-08-02T13:47:49;27.10;70.30
48998;DHT22;34807;51.456;7.244;2022-08-02T13:50:15;27.10;70.60
48998;DHT22;34807;51.456;7.244;2022-08-02T13:52:40;27.20;70.50
48998;DHT22;34807;51.456;7.244;2022-08-02T13:55:06;27.20;70.20
48998;DHT22;34807;51.456;7.244;2022-08-02T13:57:32;27.30;70.90
48998;DHT22;34807;51.456;7.244;2022-08-02T13:59:57;27.30;70.10
48998;DHT22;34807;51.456;7.244;2022-08-02T14:02:23;27.40;70.30
48998;DHT22;34807;51.456;7.244;2022-08-02T14:04:48;27.40;70.60
48998;DHT22;34807;51.456;7.244;2022-08-02T14:07:14;27.50;69.40
48998;DHT22;34807;51.456;7.244;2022-08-02T14:09:40;27.50;70.40
48998;DHT22;34807;51.456;7.244;2022-08-02T14:12:06;27.50;70.50
48998;DHT22;34807;51.456;7.244;2022-08-02T14:14:33;27.60;70.30
48998;DHT22;34807;51.456;7.244;2022-08-02T14:16:59;27.70;70.10
48998;DHT22;34807;51.456;7.244;2022-08-02T14:19:24;27.70;69.60
48998;DHT22;34807;51.456;7.244;2022-08-02T14:21:50;27.70;69.10
48998;DHT22;34807;51.456;7.244;2022-08-02T14:24:16;27.80;69.00
48998;DHT22;34807;51.456;7.244;2022-08-02T14:26:42;27.90;68.70
48998;DHT22;34807;51.456;7.244;2022-08-02T14:29:08;28.00;67.70
48998;DHT22;34807;51.456;7.244;2022-08-02T14:31:33;28.10;67.80
48998;DHT22;34807;51.456;7.244;2022-08-02T14:33:59;28.20;67.70
48998;DHT22;34807;51.456;7.244;2022-08-02T14:36:24;28.30;66.80
48998;DHT22;34807;51.456;7.244;2022-08-02T14:38:50;28.30;66.40
48998;DHT22;34807;51.456;7.244;2022-08-02T14:41:15;28.40;66.10
48998;DHT22;34807;51.456;7.244;2022-08-02T14:43:41;28.50;66.50
48998;DHT22;34807;51.456;7.244;2022-08-02T14:46:25;28.50;65.90
48998;DHT22;34807;51.456;7.244;2022-08-02T14:48:51;28.60;65.90
48998;DHT22;34807;51.456;7.244;2022-08-02T14:51:16;28.60;66.20
48998;DHT22;34807;51.456;7.244;2022-08-02T14:53:42;28.70;65.30
48998;DHT22;34807;51.456;7.244;2022-08-02T14:56:07;28.80;65.40
48998;DHT22;34807;51.456;7.244;2022-08-02T14:58:33;28.90;65.00
48998;DHT22;34807;51.456;7.244;2022-08-02T15:00:58;29.00;65.20
48998;DHT22;34807;51.456;7.244;2022-08-02T15:03:24;29.10;65.60
48998;DHT22;34807;51.456;7.244;2022-08-02T15:05:49;29.30;64.80
48998;DHT22;34807;51.456;7.244;2022-08-02T15:08:15;29.40;64.30
48998;DHT22;34807;51.456;7.244;2022-08-02T15:10:40;29.50;63.90
48998;DHT22;34807;51.456;7.244;2022-08-02T15:13:06;29.50;62.70
48998;DHT22;34807;51.456;7.244;2022-08-02T15:15:31;29.60;62.30
48998;DHT22;34807;51.456;7.244;2022-08-02T15:17:57;29.70;63.10
48998;DHT22;34807;51.456;7.244;2022-08-02T15:20:22;29.90;63.00
48998;DHT22;34807;51.456;7.244;2022-08-02T15:22:48;30.10;62.70
48998;DHT22;34807;51.456;7.244;2022-08-02T15:25:13;30.30;62.40
48998;DHT22;34807;51.456;7.244;2022-08-02T15:27:41;30.40;62.20
48998;DHT22;34807;51.456;7.244;2022-08-02T15:30:06;30.50;61.70
48998;DHT22;34807;51.456;7.244;2022-08-02T15:32:33;30.80;61.50
48998;DHT22;34807;51.456;7.244;2022-08-02T15:34:58;30.90;61.30
48998;DHT22;34807;51.456;7.244;2022-08-02T15:37:24;31.00;60.80
48998;DHT22;34807;51.456;7.244;2022-08-02T15:39:50;31.10;60.90
48998;DHT22;34807;51.456;7.244;2022-08-02T15:42:15;31.10;60.80
48998;DHT22;34807;51.456;7.244;2022-08-02T15:44:42;31.20;60.90
48998;DHT22;34807;51.456;7.244;2022-08-02T15:47:09;31.30;60.00
48998;DHT22;34807;51.456;7.244;2022-08-02T15:49:35;31.30;61.00
48998;DHT22;34807;51.456;7.244;2022-08-02T15:52:00;31.40;60.20
48998;DHT22;34807;51.456;7.244;2022-08-02T15:54:26;31.50;60.50
48998;DHT22;34807;51.456;7.244;2022-08-02T15:56:51;31.60;60.40
48998;DHT22;34807;51.456;7.244;2022-08-02T15:59:17;31.80;60.30
48998;DHT22;34807;51.456;7.244;2022-08-02T16:01:42;32.00;59.90
48998;DHT22;34807;51.456;7.244;2022-08-02T16:04:08;32.10;59.50
48998;DHT22;34807;51.456;7.244;2022-08-02T16:06:34;32.20;59.30
48998;DHT22;34807;51.456;7.244;2022-08-02T16:09:00;32.20;59.70
48998;DHT22;34807;51.456;7.244;2022-08-02T16:11:25;32.30;59.50